sensor_id;sensor_type;location;lat;lon;timestamp;pressure;altitude;pressure_sealevel;temperature;humidity
77013;BME280;67260;53.130;17.982;2023-11-19T00:15:43;101803.77;;;-0.92;85.29
77013;BME280;67260;53.130;17.982;2023-11-19T00:28:19;101802.54;;;-1.03;85.45
77013;BME280;67260;53.130;17.982;2023-11-19T01:09:26;101734.08;;;-1.08;85.59
77013;BME280;67260;53.130;17.982;2023-11-19T01:12:06;101727.45;;;-1.07;85.55
77013;BME280;67260;53.130;17.982;2023-11-19T01:15:17;101718.83;;;-1.08;85.46
77013;BME280;67260;53.130;17.982;2023-11-19T01:20:52;101712.78;;;-1.11;85.44
77013;BME280;67260;53.130;17.982;2023-11-19T01:23:59;101713.31;;;-1.11;85.64
77013;BME280;67260;53.130;17.982;2023-11-19T01:27:13;101710.73;;;-1.12;85.47
77013;BME280;67260;53.130;17.982;2023-11-19T01:29:43;101711.89;;;-1.13;85.51
77013;BME280;67260;53.130;17.982;2023-11-19T02:03:39;101634.84;;;-1.42;86.14
77013;BME280;67260;53.130;17.982;2023-11-19T02:06:45;101629.27;;;-1.44;86.19
77013;BME280;67260;53.130;17.982;2023-11-19T02:10:18;101625.98;;;-1.47;86.24
77013;BME280;67260;53.130;17.982;2023-11-19T02:13:28;101626.95;;;-1.49;86.36
77013;BME280;67260;53.130;17.982;2023-11-19T02:16:09;101628.04;;;-1.49;86.40
77013;BME280;67260;53.130;17.982;2023-11-19T02:18:56;101627.58;;;-1.48;86.55
77013;BME280;67260;53.130;17.982;2023-11-19T02:22:18;101615.56;;;-1.47;86.55
77013;BME280;67260;53.130;17.982;2023-11-19T02:28:17;101582.24;;;-1.50;86.59
77013;BME280;67260;53.130;17.982;2023-11-19T02:34:41;101581.49;;;-1.52;86.78
77013;BME280;67260;53.130;17.982;2023-11-19T02:37:17;101581.84;;;-1.54;86.75
77013;BME280;67260;53.130;17.982;2023-11-19T02:39:59;101577.41;;;-1.58;86.86
77013;BME280;67260;53.130;17.982;2023-11-19T02:43:22;101567.08;;;-1.61;86.84
77013;BME280;67260;53.130;17.982;2023-11-19T02:46:07;101559.91;;;-1.63;86.96
77013;BME280;67260;53.130;17.982;2023-11-19T03:03:56;101528.21;;;-1.62;87.35
77013;BME280;67260;53.130;17.982;2023-11-19T03:06:50;101519.60;;;-1.60;87.37
77013;BME280;67260;53.130;17.982;2023-11-19T03:23:41;101478.34;;;-1.40;87.31
77013;BME280;67260;53.130;17.982;2023-11-19T03:41:19;101423.04;;;-1.32;86.88
77013;BME280;67260;53.130;17.982;2023-11-19T03:44:11;101414.48;;;-1.32;86.78
77013;BME280;67260;53.130;17.982;2023-11-19T03:55:32;101411.52;;;-1.34;86.57
77013;BME280;67260;53.130;17.982;2023-11-19T03:58:17;101409.52;;;-1.35;86.57
77013;BME280;67260;53.130;17.982;2023-11-19T04:08:42;101386.62;;;-1.26;86.27
77013;BME280;67260;53.130;17.982;2023-11-19T04:11:27;101383.92;;;-1.25;86.00
77013;BME280;67260;53.130;17.982;2023-11-19T04:17:50;101386.68;;;-1.20;85.76
77013;BME280;67260;53.130;17.982;2023-11-19T04:21:01;101377.04;;;-1.19;85.50
77013;BME280;67260;53.130;17.982;2023-11-19T04:30:15;101349.92;;;-1.07;85.52
77013;BME280;67260;53.130;17.982;2023-11-19T04:33:32;101358.91;;;-1.04;85.34
77013;BME280;67260;53.130;17.982;2023-11-19T04:36:51;101345.55;;;-1.05;85.35
77013;BME280;67260;53.130;17.982;2023-11-19T04:39:20;101345.58;;;-1.03;85.18
77013;BME280;67260;53.130;17.982;2023-11-19T04:44:40;101327.64;;;-1.03;85.30
77013;BME280;67260;53.130;17.982;2023-11-19T04:47:45;101317.09;;;-1.03;85.26
77013;BME280;67260;53.130;17.982;2023-11-19T05:02:46;101285.27;;;-1.01;85.24
77013;BME280;67260;53.130;17.982;2023-11-19T05:05:25;101271.11;;;-1.00;85.34
77013;BME280;67260;53.130;17.982;2023-11-19T05:08:18;101271.68;;;-0.98;85.46
77013;BME280;67260;53.130;17.982;2023-11-19T05:11:27;101265.00;;;-0.97;85.40
77013;BME280;67260;53.130;17.982;2023-11-19T05:14:03;101266.48;;;-0.96;85.43
77013;BME280;67260;53.130;17.982;2023-11-19T05:17:05;101264.48;;;-0.93;85.63
77013;BME280;67260;53.130;17.982;2023-11-19T05:20:01;101266.30;;;-0.90;85.50
77013;BME280;67260;53.130;17.982;2023-11-19T05:22:42;101259.77;;;-0.88;85.53
77013;BME280;67260;53.130;17.982;2023-11-19T05:25:09;101252.27;;;-0.88;85.57
77013;BME280;67260;53.130;17.982;2023-11-19T05:28:19;101239.82;;;-0.89;85.57
77013;BME280;67260;53.130;17.982;2023-11-19T05:30:55;101233.85;;;-0.88;85.67
77013;BME280;67260;53.130;17.982;2023-11-19T05:33:48;101233.04;;;-0.89;85.63
77013;BME280;67260;53.130;17.982;2023-11-19T05:36:34;101227.14;;;-0.89;85.65
77013;BME280;67260;53.130;17.982;2023-11-19T05:39:41;101233.06;;;-0.87;85.95
77013;BME280;67260;53.130;17.982;2023-11-19T05:42:16;101230.81;;;-0.85;85.72
77013;BME280;67260;53.130;17.982;2023-11-19T05:52:12;101222.10;;;-0.85;85.91
77013;BME280;67260;53.130;17.982;2023-11-19T05:54:47;101217.65;;;-0.83;85.94
77013;BME280;67260;53.130;17.982;2023-11-19T05:58:01;101215.15;;;-0.80;85.93
77013;BME280;67260;53.130;17.982;2023-11-19T06:00:51;101207.17;;;-0.79;85.96
77013;BME280;67260;53.130;17.982;2023-11-19T06:04:12;101202.64;;;-0.76;85.97
77013;BME280;67260;53.130;17.982;2023-11-19T06:06:53;101201.96;;;-0.74;85.96
77013;BME280;67260;53.130;17.982;2023-11-19T06:09:21;101196.61;;;-0.73;85.89
77013;BME280;67260;53.130;17.982;2023-11-19T06:11:51;101188.96;;;-0.70;85.91
77013;BME280;67260;53.130;17.982;2023-11-19T06:14:18;101179.04;;;-0.68;85.82
77013;BME280;67260;53.130;17.982;2023-11-19T06:24:05;101152.17;;;-0.62;85.72
77013;BME280;67260;53.130;17.982;2023-11-19T06:38:19;101130.78;;;-0.56;85.65
77013;BME280;67260;53.130;17.982;2023-11-19T06:44:15;101118.91;;;-0.54;85.76
77013;BME280;67260;53.130;17.982;2023-11-19T06:46:46;101118.22;;;-0.51;85.63
77013;BME280;67260;53.130;17.982;2023-11-19T06:50:30;101117.72;;;-0.48;85.62
77013;BME280;67260;53.130;17.982;2023-11-19T07:06:26;101081.30;;;-0.18;84.89
77013;BME280;67260;53.130;17.982;2023-11-19T07:12:56;101070.72;;;-0.04;84.22
77013;BME280;67260;53.130;17.982;2023-11-19T07:15:40;101061.86;;;-0.02;84.15
77013;BME280;67260;53.130;17.982;2023-11-19T07:18:41;101062.66;;;0.00;84.24
77013;BME280;67260;53.130;17.982;2023-11-19T07:21:46;101057.33;;;0.02;83.77
77013;BME280;67260;53.130;17.982;2023-11-19T07:24:14;101057.23;;;0.03;83.88
77013;BME280;67260;53.130;17.982;2023-11-19T07:32:59;101050.42;;;0.07;83.62
77013;BME280;67260;53.130;17.982;2023-11-19T07:36:07;101048.41;;;0.11;83.55
77013;BME280;67260;53.130;17.982;2023-11-19T07:45:53;101036.84;;;0.18;83.11
77013;BME280;67260;53.130;17.982;2023-11-19T07:57:00;101005.09;;;0.30;83.13
77013;BME280;67260;53.130;17.982;2023-11-19T08:03:31;100989.54;;;0.35;82.88
77013;BME280;67260;53.130;17.982;2023-11-19T08:13:26;100969.65;;;0.37;82.70
77013;BME280;67260;53.130;17.982;2023-11-19T08:16:39;100970.35;;;0.39;82.85
77013;BME280;67260;53.130;17.982;2023-11-19T08:19:45;100976.23;;;0.39;82.42
77013;BME280;67260;53.130;17.982;2023-11-19T08:27:50;100954.20;;;0.38;82.65
77013;BME280;67260;53.130;17.982;2023-11-19T08:34:00;100938.31;;;0.45;82.42
77013;BME280;67260;53.130;17.982;2023-11-19T08:36:41;100937.88;;;0.47;82.65
77013;BME280;67260;53.130;17.982;2023-11-19T08:39:33;100934.48;;;0.50;82.47
77013;BME280;67260;53.130;17.982;2023-11-19T08:49:02;100904.95;;;0.57;82.45
77013;BME280;67260;53.130;17.982;2023-11-19T08:51:43;100904.13;;;0.60;82.24
77013;BME280;67260;53.130;17.982;2023-11-19T08:54:42;100892.39;;;0.63;82.19
77013;BME280;67260;53.130;17.982;2023-11-19T08:57:10;100885.49;;;0.68;82.05
77013;BME280;67260;53.130;17.982;2023-11-19T09:00:05;100879.10;;;0.73;81.89
77013;BME280;67260;53.130;17.982;2023-11-19T09:02:38;100883.25;;;0.81;82.08
77013;BME280;67260;53.130;17.982;2023-11-19T09:05:31;100882.97;;;0.88;81.74
77013;BME280;67260;53.130;17.982;2023-11-19T09:08:58;100881.19;;;0.96;81.18
77013;BME280;67260;53.130;17.982;2023-11-19T09:15:40;100872.20;;;1.10;82.05
77013;BME280;67260;53.130;17.982;2023-11-19T09:18:07;100872.38;;;1.10;80.93
77013;BME280;67260;53.130;17.982;2023-11-19T09:24:24;100852.27;;;1.02;81.88
77013;BME280;67260;53.130;17.982;2023-11-19T09:27:29;100848.79;;;1.07;82.16
77013;BME280;67260;53.130;17.982;2023-11-19T09:33:36;100829.13;;;1.21;81.31
77013;BME280;67260;53.130;17.982;2023-11-19T09:46:16;100794.14;;;1.31;81.67
77013;BME280;67260;53.130;17.982;2023-11-19T09:48:58;100787.31;;;1.29;81.68
77013;BME280;67260;53.130;17.982;2023-11-19T09:51:29;100783.57;;;1.29;81.58
77013;BME280;67260;53.130;17.982;2023-11-19T10:00:49;100766.59;;;1.31;81.72
77013;BME280;67260;53.130;17.982;2023-11-19T10:04:08;100750.40;;;1.30;81.90
77013;BME280;67260;53.130;17.982;2023-11-19T10:07:04;100747.67;;;1.30;81.44
77013;BME280;67260;53.130;17.982;2023-11-19T10:09:31;100742.40;;;1.27;81.52
77013;BME280;67260;53.130;17.982;2023-11-19T10:12:30;100739.45;;;1.27;81.93
77013;BME280;67260;53.130;17.982;2023-11-19T10:15:21;100737.13;;;1.33;81.86
77013;BME280;67260;53.130;17.982;2023-11-19T10:21:14;100729.19;;;1.48;81.62
77013;BME280;67260;53.130;17.982;2023-11-19T10:31:08;100715.14;;;1.47;81.79
77013;BME280;67260;53.130;17.982;2023-11-19T10:33:36;100719.03;;;1.47;81.63
77013;BME280;67260;53.130;17.982;2023-11-19T10:36:03;100708.83;;;1.46;81.46
77013;BME280;67260;53.130;17.982;2023-11-19T10:38:56;100708.27;;;1.44;81.61
77013;BME280;67260;53.130;17.982;2023-11-19T10:41:33;100701.02;;;1.38;81.32
77013;BME280;67260;53.130;17.982;2023-11-19T10:44:03;100700.64;;;1.37;81.73
77013;BME280;67260;53.130;17.982;2023-11-19T10:46:42;100697.31;;;1.35;81.47
77013;BME280;67260;53.130;17.982;2023-11-19T10:49:20;100694.83;;;1.28;81.49
77013;BME280;67260;53.130;17.982;2023-11-19T10:51:50;100690.81;;;1.26;82.05
77013;BME280;67260;53.130;17.982;2023-11-19T10:54:24;100685.84;;;1.27;82.27
77013;BME280;67260;53.130;17.982;2023-11-19T10:56:55;100688.95;;;1.26;82.11
77013;BME280;67260;53.130;17.982;2023-11-19T10:59:36;100682.11;;;1.22;82.22
77013;BME280;67260;53.130;17.982;2023-11-19T11:11:22;100655.09;;;1.04;84.00
77013;BME280;67260;53.130;17.982;2023-11-19T11:13:50;100650.61;;;0.99;84.31
77013;BME280;67260;53.130;17.982;2023-11-19T11:16:23;100643.51;;;0.92;84.55
77013;BME280;67260;53.130;17.982;2023-11-19T11:18:51;100640.13;;;0.88;84.69
77013;BME280;67260;53.130;17.982;2023-11-19T11:21:21;100634.92;;;0.82;85.06
77013;BME280;67260;53.130;17.982;2023-11-19T11:24:27;100630.09;;;0.74;85.67
77013;BME280;67260;53.130;17.982;2023-11-19T11:48:32;100556.31;;;0.18;87.97
77013;BME280;67260;53.130;17.982;2023-11-19T11:55:51;100544.41;;;0.10;88.21
77013;BME280;67260;53.130;17.982;2023-11-19T11:58:30;100540.02;;;0.08;88.32
77013;BME280;67260;53.130;17.982;2023-11-19T12:01:21;100536.48;;;0.07;88.53
77013;BME280;67260;53.130;17.982;2023-11-19T12:03:59;100527.50;;;0.05;88.63
77013;BME280;67260;53.130;17.982;2023-11-19T12:06:37;100524.24;;;0.02;89.12
77013;BME280;67260;53.130;17.982;2023-11-19T12:10:05;100522.54;;;-0.00;89.23
77013;BME280;67260;53.130;17.982;2023-11-19T12:12:52;100521.98;;;-0.02;89.28
77013;BME280;67260;53.130;17.982;2023-11-19T12:22:32;100478.40;;;-0.05;89.66
77013;BME280;67260;53.130;17.982;2023-11-19T12:25:01;100465.56;;;-0.05;90.06
77013;BME280;67260;53.130;17.982;2023-11-19T12:32:26;100461.45;;;-0.08;90.20
77013;BME280;67260;53.130;17.982;2023-11-19T12:34:54;100450.94;;;-0.09;90.79
77013;BME280;67260;53.130;17.982;2023-11-19T12:37:22;100448.08;;;-0.10;90.98
77013;BME280;67260;53.130;17.982;2023-11-19T12:51:11;100461.15;;;-0.08;90.87
77013;BME280;67260;53.130;17.982;2023-11-19T13:09:05;100439.84;;;0.05;90.89
77013;BME280;67260;53.130;17.982;2023-11-19T13:15:23;100421.20;;;0.06;91.06
77013;BME280;67260;53.130;17.982;2023-11-19T13:17:54;100427.96;;;0.06;90.89
77013;BME280;67260;53.130;17.982;2023-11-19T13:20:21;100423.23;;;0.06;90.79
77013;BME280;67260;53.130;17.982;2023-11-19T13:22:56;100417.57;;;0.07;90.77
77013;BME280;67260;53.130;17.982;2023-11-19T13:25:24;100421.33;;;0.08;90.63
77013;BME280;67260;53.130;17.982;2023-11-19T13:27:50;100426.86;;;0.06;91.03
77013;BME280;67260;53.130;17.982;2023-11-19T13:30:17;100427.55;;;0.05;90.91
77013;BME280;67260;53.130;17.982;2023-11-19T13:32:45;100416.81;;;0.04;90.95
77013;BME280;67260;53.130;17.982;2023-11-19T13:35:13;100410.33;;;0.05;91.13
77013;BME280;67260;53.130;17.982;2023-11-19T13:37:40;100400.98;;;0.04;91.38
77013;BME280;67260;53.130;17.982;2023-11-19T13:40:07;100394.92;;;0.02;91.38
77013;BME280;67260;53.130;17.982;2023-11-19T13:42:37;100390.93;;;-0.00;91.40
77013;BME280;67260;53.130;17.982;2023-11-19T13:45:14;100394.75;;;-0.02;91.28
77013;BME280;67260;53.130;17.982;2023-11-19T13:47:43;100385.55;;;-0.02;91.12
77013;BME280;67260;53.130;17.982;2023-11-19T13:50:12;100384.52;;;-0.02;91.13
77013;BME280;67260;53.130;17.982;2023-11-19T13:52:42;100380.25;;;-0.03;91.30
77013;BME280;67260;53.130;17.982;2023-11-19T13:55:09;100375.44;;;-0.04;91.37
77013;BME280;67260;53.130;17.982;2023-11-19T13:57:53;100369.36;;;-0.04;91.42
77013;BME280;67260;53.130;17.982;2023-11-19T14:00:20;100362.64;;;-0.05;91.52
77013;BME280;67260;53.130;17.982;2023-11-19T14:02:50;100357.27;;;-0.05;91.65
77013;BME280;67260;53.130;17.982;2023-11-19T14:05:19;100353.82;;;-0.05;91.80
77013;BME280;67260;53.130;17.982;2023-11-19T14:07:48;100348.10;;;-0.05;92.06
77013;BME280;67260;53.130;17.982;2023-11-19T14:10:16;100344.34;;;-0.06;92.18
77013;BME280;67260;53.130;17.982;2023-11-19T14:17:07;100334.14;;;-0.09;92.34
77013;BME280;67260;53.130;17.982;2023-11-19T14:19:35;100326.26;;;-0.10;92.15
77013;BME280;67260;53.130;17.982;2023-11-19T14:58:43;100316.77;;;-0.25;93.06
77013;BME280;67260;53.130;17.982;2023-11-19T15:01:14;100307.27;;;-0.25;93.18
77013;BME280;67260;53.130;17.982;2023-11-19T15:03:41;100306.35;;;-0.25;93.12
77013;BME280;67260;53.130;17.982;2023-11-19T15:06:07;100302.06;;;-0.24;93.02
77013;BME280;67260;53.130;17.982;2023-11-19T15:08:36;100294.59;;;-0.24;92.95
77013;BME280;67260;53.130;17.982;2023-11-19T15:11:06;100286.79;;;-0.24;92.79
77013;BME280;67260;53.130;17.982;2023-11-19T15:13:38;100283.20;;;-0.27;92.72
77013;BME280;67260;53.130;17.982;2023-11-19T15:16:57;100287.27;;;-0.28;92.70
77013;BME280;67260;53.130;17.982;2023-11-19T15:19:34;100288.25;;;-0.28;93.05
77013;BME280;67260;53.130;17.982;2023-11-19T15:22:28;100291.27;;;-0.29;93.15
77013;BME280;67260;53.130;17.982;2023-11-19T15:25:04;100285.17;;;-0.29;93.17
77013;BME280;67260;53.130;17.982;2023-11-19T15:27:37;100283.31;;;-0.28;93.14
77013;BME280;67260;53.130;17.982;2023-11-19T15:30:07;100277.35;;;-0.26;93.41
77013;BME280;67260;53.130;17.982;2023-11-19T15:32:36;100273.48;;;-0.23;93.22
77013;BME280;67260;53.130;17.982;2023-11-19T15:35:12;100267.59;;;-0.22;93.19
77013;BME280;67260;53.130;17.982;2023-11-19T15:37:40;100262.92;;;-0.22;93.26
77013;BME280;67260;53.130;17.982;2023-11-19T15:40:08;100268.02;;;-0.21;93.19
77013;BME280;67260;53.130;17.982;2023-11-19T15:42:47;100268.65;;;-0.20;93.19
77013;BME280;67260;53.130;17.982;2023-11-19T15:45:14;100263.55;;;-0.20;93.20
77013;BME280;67260;53.130;17.982;2023-11-19T15:48:12;100262.31;;;-0.18;93.32
77013;BME280;67260;53.130;17.982;2023-11-19T15:50:42;100253.88;;;-0.17;93.26
77013;BME280;67260;53.130;17.982;2023-11-19T15:53:11;100257.47;;;-0.16;93.20
77013;BME280;67260;53.130;17.982;2023-11-19T16:14:48;100231.07;;;-0.10;93.95
77013;BME280;67260;53.130;17.982;2023-11-19T16:47:15;100225.59;;;0.02;94.16
77013;BME280;67260;53.130;17.982;2023-11-19T16:54:46;100214.66;;;0.03;94.12
77013;BME280;67260;53.130;17.982;2023-11-19T16:57:16;100215.20;;;0.04;94.15
77013;BME280;67260;53.130;17.982;2023-11-19T16:59:44;100212.92;;;0.06;94.17
77013;BME280;67260;53.130;17.982;2023-11-19T17:02:40;100208.20;;;0.06;94.11
77013;BME280;67260;53.130;17.982;2023-11-19T17:40:57;100204.60;;;0.23;93.93
77013;BME280;67260;53.130;17.982;2023-11-19T17:43:58;100206.42;;;0.22;93.92
77013;BME280;67260;53.130;17.982;2023-11-19T17:46:38;100206.81;;;0.22;93.87
77013;BME280;67260;53.130;17.982;2023-11-19T17:49:06;100204.07;;;0.22;93.91
77013;BME280;67260;53.130;17.982;2023-11-19T17:51:50;100197.73;;;0.22;94.07
77013;BME280;67260;53.130;17.982;2023-11-19T18:04:56;100188.33;;;0.20;93.96
77013;BME280;67260;53.130;17.982;2023-11-19T18:08:02;100185.08;;;0.20;94.19
77013;BME280;67260;53.130;17.982;2023-11-19T18:11:37;100183.91;;;0.19;94.12
77013;BME280;67260;53.130;17.982;2023-11-19T18:14:14;100178.34;;;0.21;94.09
77013;BME280;67260;53.130;17.982;2023-11-19T18:36:23;100170.55;;;0.19;94.29
77013;BME280;67260;53.130;17.982;2023-11-19T18:59:24;100159.39;;;0.24;94.31
77013;BME280;67260;53.130;17.982;2023-11-19T19:05:35;100163.60;;;0.29;94.26
77013;BME280;67260;53.130;17.982;2023-11-19T19:08:06;100162.02;;;0.31;94.08
77013;BME280;67260;53.130;17.982;2023-11-19T19:10:37;100158.20;;;0.34;94.17
77013;BME280;67260;53.130;17.982;2023-11-19T19:13:06;100160.02;;;0.36;94.27
77013;BME280;67260;53.130;17.982;2023-11-19T19:15:37;100159.33;;;0.35;94.06
77013;BME280;67260;53.130;17.982;2023-11-19T19:18:10;100161.70;;;0.36;94.12
77013;BME280;67260;53.130;17.982;2023-11-19T19:24:52;100156.13;;;0.36;94.07
77013;BME280;67260;53.130;17.982;2023-11-19T19:27:28;100149.80;;;0.37;94.00
77013;BME280;67260;53.130;17.982;2023-11-19T19:30:20;100152.23;;;0.37;93.97
77013;BME280;67260;53.130;17.982;2023-11-19T19:32:50;100155.35;;;0.37;94.08
77013;BME280;67260;53.130;17.982;2023-11-19T19:35:23;100159.98;;;0.38;94.01
77013;BME280;67260;53.130;17.982;2023-11-19T19:38:13;100165.20;;;0.41;94.25
77013;BME280;67260;53.130;17.982;2023-11-19T19:44:13;100166.33;;;0.43;94.24
77013;BME280;67260;53.130;17.982;2023-11-19T19:46:58;100173.35;;;0.43;93.97
77013;BME280;67260;53.130;17.982;2023-11-19T19:53:00;100161.83;;;0.45;94.05
77013;BME280;67260;53.130;17.982;2023-11-19T19:55:48;100162.96;;;0.43;93.83
77013;BME280;67260;53.130;17.982;2023-11-19T19:58:58;100162.73;;;0.41;93.91
77013;BME280;67260;53.130;17.982;2023-11-19T20:01:25;100164.98;;;0.42;94.07
77013;BME280;67260;53.130;17.982;2023-11-19T20:04:05;100166.54;;;0.42;94.09
77013;BME280;67260;53.130;17.982;2023-11-19T20:06:57;100162.83;;;0.42;94.14
77013;BME280;67260;53.130;17.982;2023-11-19T20:10:29;100158.23;;;0.43;94.05
77013;BME280;67260;53.130;17.982;2023-11-19T20:13:32;100161.27;;;0.42;94.02
77013;BME280;67260;53.130;17.982;2023-11-19T20:16:03;100163.36;;;0.45;94.20
77013;BME280;67260;53.130;17.982;2023-11-19T20:18:39;100167.40;;;0.49;94.46
77013;BME280;67260;53.130;17.982;2023-11-19T20:21:23;100161.87;;;0.51;94.27
77013;BME280;67260;53.130;17.982;2023-11-19T20:24:28;100157.35;;;0.50;94.18
77013;BME280;67260;53.130;17.982;2023-11-19T20:27:16;100160.67;;;0.49;94.15
77013;BME280;67260;53.130;17.982;2023-11-19T20:29:51;100164.73;;;0.51;94.11
77013;BME280;67260;53.130;17.982;2023-11-19T20:32:34;100168.98;;;0.52;94.18
77013;BME280;67260;53.130;17.982;2023-11-19T20:35:08;100163.31;;;0.54;94.09
77013;BME280;67260;53.130;17.982;2023-11-19T20:37:41;100160.70;;;0.54;94.20
77013;BME280;67260;53.130;17.982;2023-11-19T20:40:17;100160.30;;;0.53;94.17
77013;BME280;67260;53.130;17.982;2023-11-19T20:43:15;100165.71;;;0.51;93.94
77013;BME280;67260;53.130;17.982;2023-11-19T20:46:22;100159.73;;;0.49;94.07
77013;BME280;67260;53.130;17.982;2023-11-19T20:49:39;100154.75;;;0.46;94.11
77013;BME280;67260;53.130;17.982;2023-11-19T21:57:46;100160.86;;;0.48;94.41
77013;BME280;67260;53.130;17.982;2023-11-19T22:00:42;100159.03;;;0.47;94.59
77013;BME280;67260;53.130;17.982;2023-11-19T22:03:23;100159.65;;;0.46;94.55
77013;BME280;67260;53.130;17.982;2023-11-19T22:05:51;100156.94;;;0.45;94.52
77013;BME280;67260;53.130;17.982;2023-11-19T22:09:07;100152.27;;;0.45;94.57
77013;BME280;67260;53.130;17.982;2023-11-19T22:11:40;100151.58;;;0.45;94.58
77013;BME280;67260;53.130;17.982;2023-11-19T22:14:53;100153.20;;;0.46;94.57
77013;BME280;67260;53.130;17.982;2023-11-19T22:17:21;100149.59;;;0.47;94.48
77013;BME280;67260;53.130;17.982;2023-11-19T22:40:26;100144.64;;;0.56;94.76
77013;BME280;67260;53.130;17.982;2023-11-19T22:42:52;100148.59;;;0.57;94.69
77013;BME280;67260;53.130;17.982;2023-11-19T22:45:19;100146.46;;;0.56;94.60
77013;BME280;67260;53.130;17.982;2023-11-19T22:47:46;100144.64;;;0.55;94.43
77013;BME280;67260;53.130;17.982;2023-11-19T22:50:16;100144.02;;;0.54;94.57
77013;BME280;67260;53.130;17.982;2023-11-19T22:52:43;100144.83;;;0.54;94.64
77013;BME280;67260;53.130;17.982;2023-11-19T22:55:11;100141.23;;;0.54;94.66
77013;BME280;67260;53.130;17.982;2023-11-19T22:57:37;100140.12;;;0.53;94.61
77013;BME280;67260;53.130;17.982;2023-11-19T23:00:05;100141.17;;;0.53;94.70
77013;BME280;67260;53.130;17.982;2023-11-19T23:02:52;100150.12;;;0.54;94.66
77013;BME280;67260;53.130;17.982;2023-11-19T23:05:18;100145.37;;;0.56;94.80
77013;BME280;67260;53.130;17.982;2023-11-19T23:23:59;100150.92;;;0.53;94.70
77013;BME280;67260;53.130;17.982;2023-11-19T23:26:35;100145.90;;;0.54;94.99
77013;BME280;67260;53.130;17.982;2023-11-19T23:29:22;100142.19;;;0.55;95.07
77013;BME280;67260;53.130;17.982;2023-11-19T23:40:52;100133.31;;;0.58;94.91
77013;BME280;67260;53.130;17.982;2023-11-19T23:51:18;100125.41;;;0.59;94.78
77013;BME280;67260;53.130;17.982;2023-11-19T23:58:06;100120.67;;;0.57;94.91
